Chesapeake — WDD3041 — position and weather

sailwx.info

Track history (hours):
 
Tides and Currents Weather Stations Pressure Air Temp Water Temp Dewpoint Dewpoint Depression Visibility Wind Speed Wind Dir Waves Ship Positions

Chesapeake

Owner: Vane Line Bunkering, Baltimore, MD. More information available from US FCC via Universal Licensing System and Coast Guard Vessel Documentation Center.

Last reported at 2016-Jan-16 09:18 UTC. Time now 2016-Feb-06 15:25 UTC.
Position N 29°41' W 089°58'.
Warning: this ship's position is 21 days out of date.

Length 34 m; draft 16 m.

Type: Tug. MMSI: 367123040.

Date/timePositionNaut miles runAvg speedWind from/ knotsBaromVisibWave heightAir tempDewpointWater temp
2016-Jan-16 09:18N 29°41' W 089°58'  
2016-Jan-10 02:05N 25°38' W 080°02'4 8.6
2016-Jan-10 01:34N 25°42' W 080°02'9 8.5
2016-Jan-10 00:33N 25°51' W 080°01'9 9.0
2016-Jan-09 23:33N 25°60' W 080°01'9 9.0
2016-Jan-09 22:33N 26°09' W 080°00'1010.4
2016-Jan-09 21:33N 26°19' W 079°60'10 9.7
2016-Jan-09 20:33N 26°29' W 079°59'9 9.4
2016-Jan-09 19:33N 26°38' W 079°59'16 8.0
2016-Jan-09 17:34N 26°54' W 079°58'8 8.2
2016-Jan-09 16:34N 27°02' W 079°59'  
Track history (hours):
 
Tides and Currents Weather Stations Pressure Air Temp Water Temp Dewpoint Dewpoint Depression Visibility Wind Speed Wind Dir Waves Ship Positions

Chesapeake

Owner: Vane Line Bunkering, Baltimore, MD. More information available from US FCC via Universal Licensing System and Coast Guard Vessel Documentation Center.

Last reported at 2016-Jan-16 09:18 UTC. Time now 2016-Feb-06 15:25 UTC.
Position N 29°41' W 089°58'.
Warning: this ship's position is 21 days out of date.

Length 34 m; draft 16 m.

Type: Tug. MMSI: 367123040.

Date/timePositionNaut miles runAvg speedWind from/ knotsBaromVisibWave heightAir tempDewpointWater temp
2016-Jan-16 09:18N 29°41' W 089°58'  
2016-Jan-10 02:05N 25°38' W 080°02'4 8.6
2016-Jan-10 01:34N 25°42' W 080°02'9 8.5
2016-Jan-10 00:33N 25°51' W 080°01'9 9.0
2016-Jan-09 23:33N 25°60' W 080°01'9 9.0
2016-Jan-09 22:33N 26°09' W 080°00'1010.4
2016-Jan-09 21:33N 26°19' W 079°60'10 9.7
2016-Jan-09 20:33N 26°29' W 079°59'9 9.4
2016-Jan-09 19:33N 26°38' W 079°59'16 8.0
2016-Jan-09 17:34N 26°54' W 079°58'8 8.2
2016-Jan-09 16:34N 27°02' W 079°59'  

Dump ship's entire track history